createdAt,value
2022-12-27T12:07:19.493Z,6.40
2022-12-27T12:10:15.839Z,6.30
2022-12-27T12:13:13.502Z,6.30
2022-12-27T12:16:24.063Z,6.30
2022-12-27T12:19:06.373Z,6.30
2022-12-27T12:22:09.910Z,6.30
2022-12-27T12:25:20.459Z,6.30
2022-12-27T12:28:23.129Z,6.40
2022-12-27T12:31:17.940Z,6.60
2022-12-27T12:34:15.056Z,6.60
2022-12-27T12:36:52.693Z,6.70
2022-12-27T12:39:50.141Z,6.70
2022-12-27T12:43:05.503Z,6.70
2022-12-27T12:45:43.361Z,6.70
2022-12-27T12:48:51.716Z,6.70
2022-12-27T12:51:46.551Z,6.70
2022-12-27T12:54:52.916Z,6.70
2022-12-27T12:57:59.927Z,6.80
2022-12-27T13:00:42.762Z,6.70
2022-12-27T13:03:31.060Z,6.60
2022-12-27T13:06:41.789Z,6.60
2022-12-27T13:09:42.741Z,6.50
2022-12-27T13:12:35.593Z,6.70
2022-12-27T13:15:23.959Z,7.20
2022-12-27T13:18:25.164Z,7.60
2022-12-27T13:21:30.789Z,8.00
2022-12-27T13:24:27.881Z,8.40
2022-12-27T13:27:27.412Z,8.80
2022-12-27T13:30:15.465Z,8.70
2022-12-27T13:33:06.271Z,8.60
2022-12-27T13:36:09.962Z,8.50
2022-12-27T13:38:58.226Z,8.50
2022-12-27T13:41:46.125Z,8.20
2022-12-27T13:44:43.365Z,8.00
2022-12-27T13:47:48.604Z,7.70
2022-12-27T13:50:59.542Z,7.60
2022-12-27T13:53:40.519Z,7.50
2022-12-27T13:56:53.245Z,7.30
2022-12-27T13:59:42.454Z,7.30
2022-12-27T14:02:36.905Z,7.20
2022-12-27T14:05:39.004Z,7.20
2022-12-27T14:09:02.657Z,7.10
2022-12-27T14:12:04.906Z,7.10
2022-12-27T14:14:40.722Z,6.90
2022-12-27T14:17:22.221Z,6.80
2022-12-27T14:20:36.387Z,6.70
2022-12-27T14:23:27.037Z,6.70
2022-12-27T14:26:25.416Z,6.70
2022-12-27T14:29:19.938Z,6.60
2022-12-27T14:32:26.212Z,6.60
2022-12-27T14:35:26.528Z,6.50
2022-12-27T14:41:17.370Z,6.50
2022-12-27T14:44:10.313Z,6.40
2022-12-27T14:46:52.032Z,6.30
2022-12-27T14:50:02.361Z,6.30
2022-12-27T14:53:00.324Z,6.20
2022-12-27T14:56:00.140Z,6.20
2022-12-27T14:59:04.906Z,6.10
2022-12-27T15:01:39.350Z,6.10
2022-12-27T15:04:36.979Z,6.10
2022-12-27T15:07:47.955Z,6.10
2022-12-27T15:10:37.397Z,6.10
2022-12-27T15:13:20.954Z,6.10
2022-12-27T15:16:29.411Z,6.10
2022-12-27T15:19:21.755Z,6.10
2022-12-27T15:22:17.299Z,6.00
2022-12-27T15:25:10.004Z,6.00
2022-12-27T15:28:00.131Z,6.00
2022-12-27T15:30:47.336Z,6.00
2022-12-27T15:34:14.129Z,5.90
2022-12-27T15:36:49.216Z,5.90
2022-12-27T15:39:35.591Z,5.90
2022-12-27T15:42:24.623Z,5.90
2022-12-27T15:45:24.080Z,5.90
2022-12-27T15:48:30.820Z,5.90
2022-12-27T15:51:33.485Z,5.90
2022-12-27T15:54:16.045Z,5.90
2022-12-27T15:57:14.574Z,5.80
2022-12-27T16:00:05.279Z,5.80
2022-12-27T16:02:48.776Z,5.80
2022-12-27T16:05:25.650Z,5.80
2022-12-27T16:07:58.496Z,5.80
2022-12-27T16:10:31.533Z,5.80
2022-12-27T16:13:11.089Z,5.70
2022-12-27T16:15:52.533Z,5.70
2022-12-27T16:18:33.687Z,5.70
2022-12-27T16:21:19.586Z,5.70
2022-12-27T16:24:04.143Z,5.70
2022-12-27T16:26:43.688Z,5.70
2022-12-27T16:29:17.810Z,5.70
2022-12-27T16:31:51.555Z,5.70
2022-12-27T16:34:28.878Z,5.60
2022-12-27T16:37:02.332Z,5.60
2022-12-27T16:39:45.839Z,5.60
2022-12-27T16:42:27.945Z,5.60
2022-12-27T16:45:36.417Z,5.50
2022-12-27T16:48:12.194Z,5.50
2022-12-27T16:50:55.214Z,5.50
2022-12-27T16:53:45.519Z,5.50
2022-12-27T16:56:48.469Z,5.40
2022-12-27T16:59:55.172Z,5.40
2022-12-27T17:02:31.508Z,5.40
2022-12-27T17:05:24.994Z,5.30
2022-12-27T17:07:59.036Z,5.30
2022-12-27T17:10:42.841Z,5.30
2022-12-27T17:13:39.554Z,5.30
2022-12-27T17:16:13.033Z,5.20
2022-12-27T17:19:03.264Z,5.20
2022-12-27T17:21:42.365Z,5.20
2022-12-27T17:24:21.139Z,5.20
2022-12-27T17:27:13.514Z,5.10
2022-12-27T17:30:06.588Z,5.10
2022-12-27T17:32:55.376Z,5.10
2022-12-27T17:36:02.486Z,5.00
2022-12-27T17:38:50.289Z,5.00
2022-12-27T17:42:04.039Z,5.00
2022-12-27T17:44:58.246Z,5.00
2022-12-27T17:47:49.686Z,4.90
2022-12-27T17:50:25.824Z,4.90
2022-12-27T17:53:43.069Z,4.90
2022-12-27T17:56:40.277Z,4.80
2022-12-27T17:59:23.081Z,4.80
2022-12-27T18:02:05.087Z,4.80
2022-12-27T18:04:42.254Z,4.80
2022-12-27T18:07:21.976Z,4.70
2022-12-27T18:09:58.157Z,4.70
2022-12-27T18:12:37.260Z,4.60
2022-12-27T18:15:16.583Z,4.60
2022-12-27T18:17:55.508Z,4.50
2022-12-27T18:20:28.358Z,4.60
2022-12-27T18:23:01.237Z,4.60
2022-12-27T18:25:45.166Z,4.50
2022-12-27T18:28:32.524Z,4.50
2022-12-27T18:31:21.570Z,4.50
2022-12-27T18:34:21.225Z,4.50
2022-12-27T18:36:59.832Z,4.40
2022-12-27T18:39:40.225Z,4.40
2022-12-27T18:42:18.873Z,4.40
2022-12-27T18:44:57.943Z,4.40
2022-12-27T18:47:33.867Z,4.40
2022-12-27T18:50:17.954Z,4.40
2022-12-27T18:53:05.479Z,4.40
2022-12-27T18:56:00.025Z,4.40
2022-12-27T18:58:34.057Z,4.40
2022-12-27T19:01:29.700Z,4.40
2022-12-27T19:04:15.127Z,4.40
2022-12-27T19:06:55.410Z,4.40
2022-12-27T19:09:36.874Z,4.40
2022-12-27T19:12:23.738Z,4.40
2022-12-27T19:14:57.647Z,4.40
2022-12-27T19:17:32.827Z,4.30
2022-12-27T19:20:16.000Z,4.30
2022-12-27T19:22:55.430Z,4.30
2022-12-27T19:25:34.006Z,4.30
2022-12-27T19:28:26.426Z,4.30
2022-12-27T19:31:19.313Z,4.30
2022-12-27T19:33:54.522Z,4.20
2022-12-27T19:36:48.481Z,4.20
2022-12-27T19:39:37.519Z,4.20
2022-12-27T19:42:18.301Z,4.20
2022-12-27T19:44:51.236Z,4.20
2022-12-27T19:47:25.707Z,4.20
2022-12-27T19:50:00.543Z,4.20
2022-12-27T19:52:34.244Z,4.20
2022-12-27T19:55:12.013Z,4.20
2022-12-27T19:57:45.085Z,4.20
2022-12-27T20:00:20.107Z,4.20
2022-12-27T20:02:53.803Z,4.20
2022-12-27T20:06:14.135Z,4.20
2022-12-27T20:08:28.395Z,4.20
2022-12-27T20:11:04.485Z,4.20
2022-12-27T20:13:37.977Z,4.20
2022-12-27T20:16:14.254Z,4.30
2022-12-27T20:18:48.119Z,4.30
2022-12-27T20:21:21.950Z,4.30
2022-12-27T20:23:55.170Z,4.40
2022-12-27T20:26:28.502Z,4.40
2022-12-27T20:29:01.725Z,4.40
2022-12-27T20:31:37.665Z,4.40
2022-12-27T20:34:18.279Z,4.40
2022-12-27T20:36:55.620Z,4.40
2022-12-27T20:39:29.955Z,4.40
2022-12-27T20:42:03.678Z,4.50
2022-12-27T20:44:37.514Z,4.50
2022-12-27T20:47:11.340Z,4.60
2022-12-27T20:49:44.997Z,4.60
2022-12-27T20:52:18.923Z,4.60
2022-12-27T20:54:52.649Z,4.70
2022-12-27T20:57:26.759Z,4.70
2022-12-27T21:00:00.586Z,4.70
2022-12-27T21:02:34.651Z,4.80
2022-12-27T21:05:09.130Z,4.80
2022-12-27T21:07:42.741Z,4.90
2022-12-27T21:10:16.627Z,4.90
2022-12-27T21:12:54.907Z,4.90
2022-12-27T21:15:31.264Z,4.90
2022-12-27T21:18:07.483Z,5.00
2022-12-27T21:20:42.997Z,5.00
2022-12-27T21:23:21.146Z,5.00
2022-12-27T21:25:55.452Z,5.00
2022-12-27T21:28:31.155Z,4.90
2022-12-27T21:31:08.568Z,5.00
2022-12-27T21:33:42.983Z,4.90
2022-12-27T21:36:25.838Z,4.90
2022-12-27T21:39:02.410Z,4.90
2022-12-27T21:41:41.744Z,4.90
2022-12-27T21:44:18.383Z,4.90
2022-12-27T21:46:53.373Z,4.80
2022-12-27T21:49:27.379Z,4.80
2022-12-27T21:52:00.711Z,4.90
2022-12-27T21:54:35.424Z,4.90
2022-12-27T21:57:09.650Z,4.90
2022-12-27T21:59:43.100Z,4.90
2022-12-27T22:02:18.180Z,4.90
2022-12-27T22:04:52.041Z,5.00
2022-12-27T22:07:30.454Z,5.00
2022-12-27T22:10:06.085Z,5.00
2022-12-27T22:12:40.660Z,5.00
2022-12-27T22:15:15.037Z,5.00
2022-12-27T22:17:52.558Z,5.10
2022-12-27T22:20:31.898Z,5.10
2022-12-27T22:23:06.475Z,5.10
2022-12-27T22:25:44.045Z,5.20
2022-12-27T22:28:17.173Z,5.20
2022-12-27T22:30:50.209Z,5.30
2022-12-27T22:33:23.358Z,5.30
2022-12-27T22:36:06.395Z,5.30
2022-12-27T22:38:40.602Z,5.30
2022-12-27T22:41:19.959Z,5.30
2022-12-27T22:44:00.237Z,5.20
2022-12-27T22:49:28.154Z,5.30
2022-12-27T22:52:01.105Z,5.30
2022-12-27T22:55:04.824Z,5.30
2022-12-27T22:57:28.149Z,5.40
2022-12-27T23:00:01.375Z,5.40
2022-12-27T23:02:34.648Z,5.40
2022-12-27T23:05:08.315Z,5.30
2022-12-27T23:08:05.653Z,5.30
2022-12-27T23:10:35.591Z,5.30
2022-12-27T23:13:09.110Z,5.30
2022-12-27T23:15:42.803Z,5.20
2022-12-27T23:18:16.345Z,5.20
2022-12-27T23:21:20.804Z,5.20
2022-12-27T23:23:43.170Z,5.20
2022-12-27T23:26:18.170Z,5.20
2022-12-27T23:28:53.165Z,5.20
2022-12-27T23:31:27.563Z,5.20
2022-12-27T23:34:00.880Z,5.20
2022-12-27T23:36:34.651Z,5.20
2022-12-27T23:39:08.118Z,5.10
2022-12-27T23:41:41.354Z,5.20
2022-12-27T23:44:14.615Z,5.20
2022-12-27T23:46:48.004Z,5.20
2022-12-27T23:49:21.915Z,5.10
2022-12-27T23:51:55.412Z,5.10
2022-12-27T23:54:28.944Z,4.90
2022-12-27T23:57:20.475Z,4.80
2022-12-27T23:59:56.109Z,4.80
